Fire Weather Observation
Issued by NWS Grand Junction, CO

Home | Current Version | Previous Version | Text Only | Print | Product List | Glossary Off
Versions: 1 2 3 4 5 6 7 8 9 10 11 12 13 14 15 16 17 18 19 20 21 22 23 24 25 26 27 28 29 30 31 32 33 34 35

000
SHUS65 KGJT 192016
FWOGJT

DAILY FIRE WEATHER OBSERVATION
NATIONAL WEATHER SERVICE GRAND JUNCTION CO
212 PM MDT TUE SEP 19 2017

STATE OF THE WEATHER (W)               1
DRY BULB TEMPERATURE                   79   DEGREES FAHRENHEIT
RELATIVE HUMIDITY (RH)                 13   PERCENT
LIGHTNING ACTIVITY LEVEL
  (LAL - MIDNIGHT TO 2 PM)             1
WIND DIRECTION                         225  DEGREES (C IF CALM)
WIND SPEED                             8    MPH
MAX TEMP (2 PM - 2 PM)                 81   DEGREES FAHRENHEIT
MIN TEMP (2 PM - 2 PM)                 58   DEGREES FAHRENHEIT
MAX RH (2 PM - 2 PM)                   34   PERCENT
MIN RH (2 PM - 2 PM)                   13   PERCENT
PCPN DURATION                          0.0  HOURS
PCPN AMT (2 PM - 2 PM)                 0.0  INCHES
LAL (2 PM - 2 PM)                      1

$$

METAR KGJT 191953Z 24007KT 10SM SCT120 26/M04 A2976 RMK AO2
      SLP012 T02611044



USA.gov is the U.S. government's official web portal to all federal, state and local government web resources and services.